Time;durP1;ratioP1;P1;durP2;ratioP2;P2;SDS_P1;SDS_P2;PMS_P1;PMS_P2;Temp;Humidity;BMP_temperature;BMP_pressure;BME280_temperature;BME280_humidity;BME280_pressure;Samples;Min_cycle;Max_cycle;Signal;HPM_P1;HPM_P2
2022/05/24 00:00:29;;;;;;;1.80;1.80;;;20.20;69.20;;;;;;5075394;28;20183;-72
2022/05/24 00:02:56;;;;;;;1.90;1.80;;;20.20;69.80;;;;;;5076320;28;20187;-72
2022/05/24 00:05:23;;;;;;;1.60;1.45;;;20.20;69.60;;;;;;5073666;28;20186;-72
2022/05/24 00:07:49;;;;;;;1.90;1.80;;;20.10;70.40;;;;;;5076077;28;20178;-72
2022/05/24 00:10:20;;;;;;;2.22;2.00;;;20.10;70.80;;;;;;5075910;28;20209;-72
2022/05/24 00:12:46;;;;;;;1.48;1.48;;;20.10;71.30;;;;;;5076688;28;20190;-71
2022/05/24 00:15:24;;;;;;;5.00;2.15;;;20.10;71.30;;;;;;5075525;28;20194;-71
2022/05/24 00:17:53;;;;;;;2.65;1.85;;;20.00;71.30;;;;;;5076817;28;20579;-73
2022/05/24 00:20:20;;;;;;;2.50;2.25;;;20.00;71.30;;;;;;5075378;28;20689;-72
2022/05/24 00:22:46;;;;;;;2.55;2.50;;;20.00;71.30;;;;;;5070104;28;20187;-72
2022/05/24 00:25:12;;;;;;;2.47;2.28;;;19.90;71.20;;;;;;5074777;28;20185;-71
2022/05/24 00:27:37;;;;;;;2.75;2.03;;;19.80;70.90;;;;;;5072441;28;20737;-72
2022/05/24 00:30:05;;;;;;;2.40;2.15;;;19.70;71.10;;;;;;5077421;28;20670;-72
2022/05/24 00:32:31;;;;;;;5.88;1.90;;;;;;;;;;5072120;28;20179;-72
2022/05/24 00:34:57;;;;;;;2.53;1.70;;;19.60;70.70;;;;;;5071168;28;20191;-72
2022/05/24 00:37:27;;;;;;;1.83;1.70;;;19.50;70.20;;;;;;5062427;28;20174;-72
2022/05/24 00:39:52;;;;;;;1.80;1.80;;;19.40;71.40;;;;;;5076172;28;20261;-71
2022/05/24 00:42:22;;;;;;;1.60;1.50;;;19.40;71.90;;;;;;5072658;28;20274;-72
2022/05/24 00:45:14;;;;;;;1.40;1.40;;;19.30;70.90;;;;;;5070290;28;20682;-71
2022/05/24 00:47:45;;;;;;;3.30;1.35;;;19.20;70.60;;;;;;5075489;28;20187;-71
2022/05/24 00:50:19;;;;;;;1.13;1.05;;;19.10;71.40;;;;;;5071015;28;20804;-73
2022/05/24 00:52:58;;;;;;;1.13;1.13;;;19.10;71.30;;;;;;5072883;28;20183;-71
2022/05/24 00:55:25;;;;;;;1.45;1.35;;;19.00;70.60;;;;;;5071167;28;20242;-71
2022/05/24 00:57:57;;;;;;;3.45;1.95;;;19.00;70.70;;;;;;5068762;28;20194;-72
2022/05/24 01:00:23;;;;;;;1.55;1.55;;;18.90;70.90;;;;;;5070849;28;20279;-72
2022/05/24 01:02:50;;;;;;;1.75;1.65;;;18.90;71.20;;;;;;5071248;28;20192;-72
2022/05/24 01:05:20;;;;;;;1.30;1.30;;;18.80;70.90;;;;;;5068636;28;20564;-73
2022/05/24 01:07:47;;;;;;;1.10;1.10;;;18.80;70.40;;;;;;5070013;28;20179;-73
2022/05/24 01:10:25;;;;;;;1.30;1.20;;;18.80;70.40;;;;;;5069120;28;20547;-73
2022/05/24 01:12:59;;;;;;;4.38;1.35;;;18.80;71.70;;;;;;5068836;28;20213;-73
2022/05/24 01:15:26;;;;;;;1.40;1.25;;;18.80;71.20;;;;;;5067903;28;20213;-72
2022/05/24 01:17:55;;;;;;;1.58;1.50;;;18.80;71.20;;;;;;5057167;28;20183;-73
2022/05/24 01:20:22;;;;;;;1.20;1.20;;;18.80;72.10;;;;;;5073376;28;20217;-73
2022/05/24 01:23:09;;;;;;;1.90;1.50;;;18.80;71.70;;;;;;5068741;28;20266;-73
2022/05/24 01:25:46;;;;;;;1.05;1.05;;;18.80;71.30;;;;;;5069195;28;20872;-73
2022/05/24 01:28:28;;;;;;;2.38;1.05;;;18.80;71.50;;;;;;5071543;28;20186;-73
2022/05/24 01:30:55;;;;;;;1.38;1.27;;;18.80;71.50;;;;;;5069940;28;20260;-73
2022/05/24 01:36:10;;;;;;;1.50;1.50;;;18.70;72.60;;;;;;5070031;28;20226;-73
2022/05/24 01:38:45;;;;;;;0.93;0.93;;;18.70;72.90;;;;;;5071904;28;20194;-73
2022/05/24 01:41:16;;;;;;;1.00;1.00;;;18.60;72.40;;;;;;5069294;28;20213;-73
2022/05/24 01:43:43;;;;;;;1.15;1.05;;;18.50;72.00;;;;;;5071095;28;20186;-73
2022/05/24 01:46:11;;;;;;;1.27;1.27;;;18.40;72.50;;;;;;5067425;28;20182;-73
2022/05/24 01:48:46;;;;;;;0.82;0.82;;;18.40;72.80;;;;;;5073378;28;20178;-73
2022/05/24 01:51:16;;;;;;;1.00;1.00;;;18.30;71.80;;;;;;5066450;28;20238;-72
2022/05/24 01:53:50;;;;;;;0.85;0.85;;;18.30;72.20;;;;;;5072148;28;20660;-73
2022/05/24 01:56:20;;;;;;;2.33;1.02;;;18.20;71.70;;;;;;5067542;28;20211;-73
2022/05/24 01:58:50;;;;;;;1.08;1.08;;;18.20;71.50;;;;;;5074378;28;20182;-73
2022/05/24 02:01:43;;;;;;;0.75;0.75;;;18.20;73.00;;;;;;5064661;28;20564;-73
2022/05/24 02:04:09;;;;;;;1.15;1.15;;;;;;;;;;5053203;28;20290;-72
2022/05/24 02:06:35;;;;;;;2.20;1.20;;;18.10;71.60;;;;;;5058512;28;20794;-72
2022/05/24 02:09:03;;;;;;;2.03;0.90;;;18.10;71.40;;;;;;5056639;28;20200;-74
2022/05/24 02:11:31;;;;;;;1.10;1.10;;;18.10;71.50;;;;;;5055572;28;20266;-72
2022/05/24 02:14:05;;;;;;;0.80;0.80;;;18.20;72.90;;;;;;5054783;28;20215;-72
2022/05/24 02:16:34;;;;;;;1.02;1.02;;;18.10;73.40;;;;;;5054699;28;20242;-72
2022/05/24 02:19:00;;;;;;;2.15;0.90;;;18.10;72.40;;;;;;5056362;28;20585;-72
2022/05/24 02:21:26;;;;;;;3.35;0.93;;;18.10;73.80;;;;;;5051471;28;21656;-71
2022/05/24 02:23:52;;;;;;;0.88;0.88;;;18.20;74.10;;;;;;5058006;28;20191;-72
2022/05/24 02:26:21;;;;;;;1.92;1.20;;;18.20;74.20;;;;;;5058162;28;20586;-73
2022/05/24 02:28:52;;;;;;;1.33;1.33;;;18.20;74.60;;;;;;5054582;28;20196;-72
2022/05/24 02:31:19;;;;;;;1.00;1.00;;;18.20;75.20;;;;;;5056516;28;20270;-72
2022/05/24 02:33:45;;;;;;;1.45;1.33;;;18.20;74.50;;;;;;5045915;28;20191;-71
2022/05/24 02:36:12;;;;;;;3.60;1.30;;;18.10;74.80;;;;;;5055078;28;20214;-71
2022/05/24 02:38:38;;;;;;;1.75;1.52;;;18.10;74.80;;;;;;5054671;28;20188;-72
2022/05/24 02:43:48;;;;;;;4.10;1.25;;;18.10;74.80;;;;;;5065699;28;20285;-72
2022/05/24 02:46:18;;;;;;;1.35;1.35;;;18.10;76.10;;;;;;5069236;28;20269;-71
2022/05/24 02:48:44;;;;;;;0.85;0.85;;;18.00;75.20;;;;;;5068045;28;20186;-71
2022/05/24 02:51:12;;;;;;;1.00;1.00;;;18.00;76.60;;;;;;5071852;28;20191;-71
2022/05/24 02:53:39;;;;;;;3.75;1.40;;;18.10;76.10;;;;;;5064753;28;20178;-71
2022/05/24 02:56:06;;;;;;;1.10;1.10;;;18.00;75.60;;;;;;5072823;28;20219;-71
2022/05/24 02:58:33;;;;;;;0.90;0.80;;;17.90;76.40;;;;;;5070102;28;20213;-71
2022/05/24 03:00:59;;;;;;;1.15;1.05;;;17.90;76.80;;;;;;5067157;28;20843;-73
2022/05/24 03:03:25;;;;;;;1.10;1.10;;;;;;;;;;5070193;28;20181;-72
2022/05/24 03:05:51;;;;;;;1.38;1.33;;;17.90;77.10;;;;;;5067553;28;20200;-73
2022/05/24 03:11:01;;;;;;;1.00;1.00;;;17.80;76.40;;;;;;5069732;28;20742;-73
2022/05/24 03:16:13;;;;;;;0.90;0.90;;;17.80;76.70;;;;;;5068705;28;20222;-74
2022/05/24 03:18:40;;;;;;;1.10;1.10;;;17.80;76.00;;;;;;5066507;28;20183;-71
2022/05/24 03:21:06;;;;;;;1.17;1.08;;;17.80;75.50;;;;;;5066391;28;20190;-72
2022/05/24 03:23:33;;;;;;;0.95;0.95;;;17.70;75.00;;;;;;5070142;28;20745;-72
2022/05/24 03:25:59;;;;;;;1.38;1.27;;;17.70;75.10;;;;;;5072145;28;20707;-72
2022/05/24 03:28:25;;;;;;;4.43;1.20;;;17.70;74.70;;;;;;5075690;28;20277;-72
2022/05/24 03:30:50;;;;;;;8.50;1.20;;;17.70;74.70;;;;;;5065662;28;20545;-72
2022/05/24 03:33:17;;;;;;;1.02;1.02;;;17.70;74.70;;;;;;5072229;28;20185;-72
2022/05/24 03:35:42;;;;;;;0.90;0.80;;;17.80;75.10;;;;;;5057108;28;20211;-72
2022/05/24 03:38:08;;;;;;;1.05;1.05;;;17.80;74.50;;;;;;5066139;28;20672;-72
2022/05/24 03:40:34;;;;;;;1.10;1.10;;;17.80;75.90;;;;;;5072740;28;20671;-71
2022/05/24 03:43:01;;;;;;;2.47;1.02;;;17.80;74.60;;;;;;5074174;28;20179;-72
2022/05/24 03:45:28;;;;;;;1.13;1.13;;;17.80;74.70;;;;;;5069978;28;20343;-72
2022/05/24 03:47:54;;;;;;;1.27;1.02;;;17.80;75.50;;;;;;5075113;28;20190;-73
2022/05/24 03:50:25;;;;;;;2.25;1.25;;;17.80;76.30;;;;;;5070818;28;20205;-73
2022/05/24 03:52:51;;;;;;;1.10;1.10;;;;;;;;;;5071753;28;20175;-73
2022/05/24 03:55:17;;;;;;;1.30;1.10;;;17.90;77.20;;;;;;5073248;28;20186;-73
2022/05/24 03:58:01;;;;;;;4.43;1.20;;;17.90;77.30;;;;;;5069490;28;20725;-73
2022/05/24 04:00:46;;;;;;;11.30;1.38;;;17.90;77.40;;;;;;5060109;28;20183;-73
2022/05/24 04:03:13;;;;;;;1.23;1.23;;;17.90;77.50;;;;;;5072529;28;20877;-72
2022/05/24 04:05:39;;;;;;;1.42;1.38;;;17.90;77.50;;;;;;5073387;28;20684;-73
2022/05/24 04:08:05;;;;;;;1.17;1.08;;;17.90;76.60;;;;;;5070872;28;20211;-73
2022/05/24 04:10:32;;;;;;;0.98;0.98;;;17.80;77.30;;;;;;5054930;28;20186;-73
2022/05/24 04:12:59;;;;;;;1.10;1.10;;;17.80;76.70;;;;;;5071880;28;20211;-73
2022/05/24 04:15:25;;;;;;;1.10;1.02;;;17.80;76.70;;;;;;5069508;28;20206;-73
2022/05/24 04:17:55;;;;;;;1.30;1.02;;;17.80;77.20;;;;;;5078779;28;20236;-73
2022/05/24 04:20:22;;;;;;;3.22;1.20;;;17.80;77.10;;;;;;5056587;28;20182;-73
2022/05/24 04:22:50;;;;;;;0.93;0.93;;;17.80;77.80;;;;;;5066693;28;20664;-74
2022/05/24 04:25:16;;;;;;;0.90;0.90;;;17.80;78.20;;;;;;5074986;28;20984;-73
2022/05/24 04:27:42;;;;;;;1.27;1.27;;;;;;;;;;5073242;28;20183;-72
2022/05/24 04:30:10;;;;;;;1.63;0.90;;;17.80;77.70;;;;;;5071229;28;20205;-71
2022/05/24 04:32:36;;;;;;;1.10;1.10;;;17.70;76.60;;;;;;5073583;28;20214;-71
2022/05/24 04:35:02;;;;;;;1.85;1.20;;;;;;;;;;5069199;28;20645;-72
2022/05/24 04:37:27;;;;;;;2.30;1.50;;;17.80;77.00;;;;;;5074157;28;20225;-72
2022/05/24 04:39:53;;;;;;;1.08;1.08;;;;;;;;;;5073555;28;20179;-71
2022/05/24 04:42:19;;;;;;;4.35;1.17;;;17.80;77.50;;;;;;5071604;28;20178;-72
2022/05/24 04:44:47;;;;;;;1.33;1.33;;;17.90;76.80;;;;;;5076215;28;20182;-72
2022/05/24 04:47:13;;;;;;;1.63;1.40;;;17.90;77.40;;;;;;5069114;28;20900;-72
2022/05/24 04:49:42;;;;;;;1.67;1.58;;;17.90;76.70;;;;;;5070743;28;20175;-73
2022/05/24 04:52:10;;;;;;;1.20;1.20;;;18.00;76.30;;;;;;5068031;28;20174;-72
2022/05/24 04:54:38;;;;;;;1.67;1.00;;;18.10;78.00;;;;;;5068293;28;20183;-72
2022/05/24 04:57:04;;;;;;;1.35;1.35;;;18.10;76.50;;;;;;5070148;28;20775;-72
2022/05/24 04:59:30;;;;;;;1.60;1.50;;;18.20;78.10;;;;;;5069363;28;20268;-72
2022/05/24 05:01:55;;;;;;;1.67;1.40;;;18.30;77.30;;;;;;5063457;28;20198;-72
2022/05/24 05:04:23;;;;;;;1.20;1.20;;;18.40;77.20;;;;;;5067519;28;20175;-72
2022/05/24 05:06:49;;;;;;;1.83;1.65;;;18.50;77.40;;;;;;5055672;28;20232;-72
2022/05/24 05:09:16;;;;;;;1.73;1.50;;;18.60;77.00;;;;;;5071188;28;20189;-72
2022/05/24 05:11:42;;;;;;;1.95;1.58;;;18.60;76.50;;;;;;5071270;28;20175;-73
2022/05/24 05:14:09;;;;;;;2.15;1.42;;;18.60;76.90;;;;;;5068083;28;20301;-72
2022/05/24 05:16:36;;;;;;;1.50;1.50;;;18.70;76.70;;;;;;5065427;28;20314;-72
2022/05/24 05:19:03;;;;;;;2.58;1.50;;;18.80;76.60;;;;;;5085649;28;20430;-72
2022/05/24 05:21:31;;;;;;;1.52;1.52;;;18.80;77.10;;;;;;5061608;28;20178;-73
2022/05/24 05:23:57;;;;;;;1.48;1.48;;;18.90;77.30;;;;;;5051761;28;20182;-71
2022/05/24 05:26:23;;;;;;;2.45;1.30;;;18.90;76.70;;;;;;5070725;28;20696;-72
2022/05/24 05:28:48;;;;;;;1.55;1.45;;;19.00;76.90;;;;;;5068090;28;20179;-72
2022/05/24 05:31:17;;;;;;;1.20;1.20;;;19.00;76.50;;;;;;5078676;28;20187;-72
2022/05/24 05:33:44;;;;;;;2.05;1.38;;;19.00;76.50;;;;;;5085961;28;20183;-73
2022/05/24 05:36:10;;;;;;;1.05;1.05;;;19.00;76.90;;;;;;5070746;28;20218;-71
2022/05/24 05:38:36;;;;;;;1.58;1.55;;;19.00;76.20;;;;;;5067999;28;20321;-72
2022/05/24 05:41:04;;;;;;;3.50;1.50;;;19.00;76.10;;;;;;5065234;28;20264;-71
2022/05/24 05:43:29;;;;;;;1.67;1.63;;;19.00;76.40;;;;;;5055506;28;20190;-71
2022/05/24 05:45:57;;;;;;;4.07;1.45;;;19.00;76.40;;;;;;5065306;28;20183;-72
2022/05/24 05:48:24;;;;;;;1.50;1.50;;;19.00;76.20;;;;;;5055579;28;20630;-71
2022/05/24 05:50:50;;;;;;;1.75;1.60;;;19.00;76.00;;;;;;5072147;28;20187;-72
2022/05/24 05:53:18;;;;;;;1.58;1.33;;;19.00;76.30;;;;;;5072831;28;20190;-74
2022/05/24 05:55:44;;;;;;;1.40;1.40;;;;;;;;;;5064444;28;20210;-72
2022/05/24 05:58:11;;;;;;;1.67;1.65;;;19.10;75.80;;;;;;5063689;28;20180;-71
2022/05/24 06:00:38;;;;;;;2.88;1.30;;;19.10;75.80;;;;;;5067009;28;20212;-73
2022/05/24 06:03:04;;;;;;;1.60;1.50;;;19.20;75.70;;;;;;5070948;28;20183;-71
2022/05/24 06:05:30;;;;;;;1.55;1.52;;;;;;;;;;5068069;28;20245;-72
2022/05/24 06:07:57;;;;;;;1.67;1.58;;;19.20;75.60;;;;;;5063906;28;20279;-71
2022/05/24 06:10:23;;;;;;;1.40;1.30;;;19.30;75.70;;;;;;5067182;28;20283;-72
2022/05/24 06:12:51;;;;;;;1.83;1.80;;;19.30;75.60;;;;;;5067740;28;20189;-72
2022/05/24 06:15:17;;;;;;;2.20;2.10;;;19.40;75.20;;;;;;5048691;28;20851;-72
2022/05/24 06:17:48;;;;;;;3.78;2.10;;;19.40;74.70;;;;;;5065556;28;20316;-72
2022/05/24 06:20:16;;;;;;;1.70;1.60;;;19.40;74.70;;;;;;5069532;28;20178;-72
2022/05/24 06:22:42;;;;;;;2.15;1.63;;;19.40;74.80;;;;;;5067581;28;20187;-73
2022/05/24 06:25:08;;;;;;;2.20;2.00;;;19.40;74.90;;;;;;5067922;28;20194;-72
2022/05/24 06:27:33;;;;;;;2.17;2.15;;;19.50;75.20;;;;;;5053176;28;20862;-71
2022/05/24 06:29:59;;;;;;;1.60;1.50;;;;;;;;;;5065854;28;20182;-72
2022/05/24 06:32:25;;;;;;;2.22;2.13;;;19.60;76.30;;;;;;5062102;28;20190;-72
2022/05/24 06:34:53;;;;;;;3.35;2.40;;;19.60;75.40;;;;;;5062070;28;20183;-72
2022/05/24 06:37:19;;;;;;;2.20;2.10;;;19.60;75.30;;;;;;5062083;28;20219;-72
2022/05/24 06:39:46;;;;;;;2.30;1.95;;;19.70;74.50;;;;;;5084708;28;20174;-71
2022/05/24 06:42:12;;;;;;;2.17;2.17;;;19.60;74.70;;;;;;5063092;28;20243;-71
2022/05/24 06:44:38;;;;;;;2.40;2.28;;;19.60;74.80;;;;;;5064659;28;21398;-72
2022/05/24 06:47:04;;;;;;;2.45;2.30;;;19.60;74.60;;;;;;5089603;28;20191;-72
2022/05/24 06:49:30;;;;;;;2.13;2.08;;;19.70;74.70;;;;;;5065888;28;20583;-72
2022/05/24 06:51:57;;;;;;;3.28;2.08;;;19.80;74.70;;;;;;5065789;28;20187;-72
2022/05/24 06:54:23;;;;;;;2.00;1.90;;;19.80;74.60;;;;;;5053955;28;20187;-72
2022/05/24 06:56:49;;;;;;;2.33;2.13;;;19.90;74.70;;;;;;5044278;28;20887;-72
2022/05/24 07:04:43;;;;;;;2.33;2.15;;;20.20;74.70;;;;;;5065775;28;20275;-72
2022/05/24 07:07:09;;;;;;;1.90;1.70;;;20.40;74.50;;;;;;5065137;28;20262;-73
2022/05/24 07:09:35;;;;;;;3.00;2.40;;;;;;;;;;5050263;28;20179;-73
2022/05/24 07:12:02;;;;;;;2.13;2.03;;;20.60;72.90;;;;;;5055536;28;20194;-71
2022/05/24 07:14:28;;;;;;;2.15;2.05;;;20.60;73.40;;;;;;5056272;28;20209;-73
2022/05/24 07:16:53;;;;;;;2.30;2.20;;;20.60;73.20;;;;;;5061913;28;20207;-72
2022/05/24 07:19:21;;;;;;;2.80;2.60;;;20.70;73.20;;;;;;5070749;28;20193;-71
2022/05/24 07:21:46;;;;;;;1.90;1.90;;;20.80;72.40;;;;;;5073335;28;20182;-72
2022/05/24 07:24:12;;;;;;;3.88;2.40;;;;;;;;;;5056683;28;20755;-72
2022/05/24 07:26:38;;;;;;;2.80;2.60;;;20.90;73.00;;;;;;5055360;28;20193;-73
2022/05/24 07:29:04;;;;;;;3.00;2.40;;;21.00;72.90;;;;;;5058466;28;20182;-73
2022/05/24 07:31:31;;;;;;;2.45;2.30;;;21.10;73.20;;;;;;5094932;28;20580;-73
2022/05/24 07:33:59;;;;;;;2.30;2.17;;;;;;;;;;5055532;28;20198;-73
2022/05/24 07:36:25;;;;;;;1.60;1.60;;;21.20;73.20;;;;;;5087125;28;20241;-73
2022/05/24 07:38:51;;;;;;;1.77;1.77;;;21.40;73.00;;;;;;5066098;28;20264;-72
2022/05/24 07:46:45;;;;;;;1.73;1.73;;;21.70;72.80;;;;;;5071585;28;20220;-71
2022/05/24 07:49:11;;;;;;;2.88;2.20;;;;;;;;;;5066386;28;20183;-70
2022/05/24 07:51:37;;;;;;;2.17;2.08;;;21.90;72.30;;;;;;5063527;28;20226;-71
2022/05/24 07:54:03;;;;;;;1.88;1.88;;;22.10;72.10;;;;;;5072094;28;21018;-72
2022/05/24 07:56:30;;;;;;;2.63;2.53;;;22.20;71.60;;;;;;5063353;28;20214;-71
2022/05/24 07:58:55;;;;;;;2.42;2.00;;;22.30;71.50;;;;;;5062361;28;20173;-72
2022/05/24 08:01:23;;;;;;;2.50;2.40;;;;;;;;;;5066609;28;20182;-71
2022/05/24 08:03:49;;;;;;;1.95;1.95;;;22.60;71.50;;;;;;5055129;28;20183;-72
2022/05/24 08:06:15;;;;;;;2.17;2.08;;;22.70;71.50;;;;;;5068750;28;20183;-70
2022/05/24 08:08:41;;;;;;;2.15;2.10;;;22.90;71.10;;;;;;5051586;28;20599;-70
2022/05/24 08:11:07;;;;;;;2.25;2.15;;;;;;;;;;5066409;28;20582;-69
2022/05/24 08:13:33;;;;;;;2.38;2.28;;;23.00;70.80;;;;;;5068282;28;20266;-74
2022/05/24 08:15:59;;;;;;;2.28;1.88;;;23.00;70.90;;;;;;5066496;28;20207;-72
2022/05/24 08:18:25;;;;;;;2.05;1.90;;;23.20;70.60;;;;;;5065981;28;20179;-71
2022/05/24 08:20:53;;;;;;;2.70;2.50;;;23.30;70.80;;;;;;5067869;28;20189;-72
2022/05/24 08:23:20;;;;;;;2.85;2.50;;;23.40;70.00;;;;;;5070880;28;20630;-72
2022/05/24 08:25:46;;;;;;;2.67;2.45;;;23.40;70.20;;;;;;5071524;28;20179;-72
2022/05/24 08:28:12;;;;;;;3.17;2.97;;;23.50;69.90;;;;;;5064321;28;20223;-72
2022/05/24 08:30:39;;;;;;;2.60;2.33;;;23.60;69.70;;;;;;5061492;28;20194;-71
2022/05/24 08:33:05;;;;;;;2.40;2.40;;;23.70;69.50;;;;;;5070385;28;20171;-72
2022/05/24 08:35:35;;;;;;;2.13;2.10;;;23.80;69.90;;;;;;5068020;28;20649;-72
2022/05/24 08:38:03;;;;;;;2.28;2.10;;;23.80;69.30;;;;;;5064934;28;20190;-73
2022/05/24 08:40:29;;;;;;;4.18;2.10;;;23.90;69.50;;;;;;5069642;28;20205;-70
2022/05/24 08:43:26;;;;;;;2.30;2.30;;;23.90;69.80;;;;;;5064146;28;20189;-71
2022/05/24 08:48:44;;;;;;;6.55;2.10;;;24.10;69.50;;;;;;5069946;28;20224;-72
2022/05/24 08:51:10;;;;;;;5.38;2.05;;;;;;;;;;5064042;28;20240;-70
2022/05/24 08:53:42;;;;;;;2.47;2.38;;;24.30;68.80;;;;;;5065424;28;20187;-70
2022/05/24 08:56:16;;;;;;;3.65;2.35;;;24.30;69.30;;;;;;5071542;28;20291;-70
2022/05/24 08:58:47;;;;;;;2.03;2.00;;;24.40;69.00;;;;;;5068379;28;20178;-70
2022/05/24 09:01:23;;;;;;;2.88;2.78;;;24.50;69.00;;;;;;5089487;28;20186;-71
2022/05/24 09:03:49;;;;;;;3.35;2.15;;;24.60;69.00;;;;;;5047178;28;20311;-71
2022/05/24 09:06:30;;;;;;;5.43;2.63;;;24.70;69.00;;;;;;5065262;28;20186;-70
2022/05/24 09:09:30;;;;;;;2.42;2.42;;;24.80;68.50;;;;;;5071276;28;20179;-72
2022/05/24 09:12:16;;;;;;;2.40;2.30;;;24.90;68.50;;;;;;5012327;28;20201;-72
2022/05/24 09:14:59;;;;;;;2.42;2.33;;;25.00;68.30;;;;;;5013350;28;20238;-72
2022/05/24 09:17:25;;;;;;;2.63;2.40;;;;;;;;;;5030516;28;20248;-73
2022/05/24 09:19:51;;;;;;;2.47;2.28;;;;;;;;;;5014345;28;20717;-71
2022/05/24 09:22:21;;;;;;;2.95;2.78;;;;;;;;;;5011253;28;20232;-72
2022/05/24 09:24:59;;;;;;;7.53;3.08;;;25.30;67.00;;;;;;5008814;28;20181;-73
2022/05/24 09:27:28;;;;;;;2.45;2.40;;;25.30;67.60;;;;;;4996038;28;20192;-71
2022/05/24 09:30:02;;;;;;;2.10;2.10;;;25.40;66.80;;;;;;5009156;28;21634;-71
2022/05/24 09:32:38;;;;;;;3.03;2.47;;;25.50;66.70;;;;;;5028072;28;20247;-71
2022/05/24 09:35:04;;;;;;;2.25;2.10;;;25.50;67.00;;;;;;5012104;28;20200;-72
2022/05/24 09:37:30;;;;;;;2.97;2.80;;;25.60;67.20;;;;;;5009566;28;20688;-73
2022/05/24 09:40:04;;;;;;;2.72;2.53;;;25.70;66.90;;;;;;5010051;28;20663;-71
2022/05/24 09:42:39;;;;;;;3.03;2.65;;;25.80;67.30;;;;;;5011061;28;20205;-70
2022/05/24 09:45:23;;;;;;;2.55;2.33;;;26.10;67.10;;;;;;5009478;28;20196;-71
2022/05/24 09:47:49;;;;;;;2.80;2.70;;;;;;;;;;5005909;28;20187;-71
2022/05/24 09:50:19;;;;;;;3.10;2.90;;;;;;;;;;5070995;28;20281;-72
2022/05/24 09:53:02;;;;;;;2.75;2.65;;;26.70;66.70;;;;;;5068096;28;20190;-72
2022/05/24 09:55:29;;;;;;;3.15;2.40;;;26.90;66.10;;;;;;5057839;28;20187;-72
2022/05/24 09:58:16;;;;;;;3.05;2.80;;;27.00;64.70;;;;;;5065100;28;20189;-72
2022/05/24 10:00:56;;;;;;;3.00;2.90;;;27.20;64.30;;;;;;5065024;28;20279;-73
2022/05/24 10:03:28;;;;;;;3.08;2.97;;;27.40;63.30;;;;;;5067477;28;20210;-73
2022/05/24 10:06:23;;;;;;;3.92;3.42;;;27.50;62.70;;;;;;5069201;28;20590;-72
2022/05/24 10:08:56;;;;;;;3.25;3.10;;;27.70;63.00;;;;;;5053949;28;20217;-72
2022/05/24 10:11:36;;;;;;;2.78;2.67;;;27.80;63.90;;;;;;5062763;28;20190;-73
2022/05/24 10:14:28;;;;;;;3.70;2.95;;;28.10;63.80;;;;;;5068043;28;20210;-71
2022/05/24 10:17:19;;;;;;;3.08;2.97;;;28.40;63.10;;;;;;5063489;28;20624;-71
2022/05/24 10:20:18;;;;;;;3.30;2.78;;;28.70;62.90;;;;;;5066118;28;20605;-72
2022/05/24 10:22:59;;;;;;;4.00;3.13;;;29.30;61.30;;;;;;5064306;28;20266;-72
2022/05/24 10:25:47;;;;;;;3.28;2.53;;;29.70;61.40;;;;;;5066093;28;20568;-71
2022/05/24 10:28:36;;;;;;;3.22;3.03;;;30.20;60.60;;;;;;5066729;28;20183;-72
2022/05/24 10:31:22;;;;;;;2.95;2.85;;;30.80;58.20;;;;;;5066813;28;20194;-71
2022/05/24 10:40:25;;;;;;;3.33;3.22;;;32.80;56.50;;;;;;5042487;28;20236;-72
2022/05/24 10:43:08;;;;;;;4.05;3.85;;;33.10;54.80;;;;;;5042542;28;20191;-72
2022/05/24 10:45:51;;;;;;;5.32;3.20;;;33.50;55.40;;;;;;5041340;28;20198;-71
2022/05/24 10:48:38;;;;;;;3.95;3.75;;;33.30;53.80;;;;;;5041146;28;20252;-72
2022/05/24 10:51:17;;;;;;;3.83;3.53;;;33.30;53.70;;;;;;5027531;28;20665;-73
2022/05/24 10:54:01;;;;;;;3.50;3.15;;;33.50;54.30;;;;;;5045839;28;20209;-73
2022/05/24 10:56:27;;;;;;;4.07;3.65;;;;;;;;;;5045449;28;20817;-72
2022/05/24 10:59:12;;;;;;;3.45;3.20;;;34.30;54.30;;;;;;5047313;28;20266;-72
2022/05/24 11:01:44;;;;;;;4.32;3.67;;;34.80;53.30;;;;;;5045351;28;20236;-73
2022/05/24 11:04:20;;;;;;;3.47;3.22;;;35.10;53.30;;;;;;5046322;28;20187;-71
2022/05/24 11:06:58;;;;;;;3.17;3.08;;;35.60;52.50;;;;;;5045161;28;20294;-70
2022/05/24 11:09:27;;;;;;;3.70;3.50;;;35.90;51.60;;;;;;5031111;28;20187;-73
2022/05/24 11:12:06;;;;;;;3.50;3.30;;;36.30;51.70;;;;;;5048847;28;20198;-72
2022/05/24 11:14:50;;;;;;;3.65;3.35;;;36.40;51.00;;;;;;5063885;28;20206;-71
2022/05/24 11:17:18;;;;;;;7.13;3.53;;;36.50;51.60;;;;;;5068605;28;20263;-71
2022/05/24 11:19:55;;;;;;;3.15;2.95;;;36.30;51.00;;;;;;5070513;28;20213;-71
2022/05/24 11:22:48;;;;;;;3.45;3.17;;;36.10;50.80;;;;;;5069802;28;20181;-71
2022/05/24 11:25:51;;;;;;;3.30;3.08;;;36.10;51.90;;;;;;5038429;28;20199;-71
2022/05/24 11:28:27;;;;;;;7.60;3.65;;;36.20;50.80;;;;;;4999739;28;20239;-71
2022/05/24 11:30:56;;;;;;;3.42;3.08;;;36.40;51.50;;;;;;4999484;28;20196;-72
2022/05/24 11:33:39;;;;;;;3.45;3.15;;;36.60;50.90;;;;;;4999195;28;20184;-72
2022/05/24 11:36:21;;;;;;;5.95;3.67;;;36.90;50.80;;;;;;4998885;28;20691;-73
2022/05/24 11:38:49;;;;;;;3.05;2.92;;;37.30;51.10;;;;;;4999081;28;20200;-73
2022/05/24 11:41:31;;;;;;;3.40;3.20;;;37.70;50.30;;;;;;4997808;28;20186;-72
2022/05/24 11:44:01;;;;;;;3.72;3.50;;;37.90;48.30;;;;;;4996923;28;20197;-72
2022/05/24 11:46:33;;;;;;;3.45;3.35;;;38.10;48.60;;;;;;4999689;28;20188;-72
2022/05/24 11:49:05;;;;;;;5.13;2.83;;;38.40;49.10;;;;;;4999347;28;20294;-72
2022/05/24 11:51:39;;;;;;;8.25;4.05;;;38.70;48.30;;;;;;4999028;28;20189;-72
2022/05/24 11:54:25;;;;;;;3.90;3.67;;;38.80;49.90;;;;;;4984559;28;20184;-72
2022/05/24 11:57:02;;;;;;;3.55;3.35;;;38.90;48.10;;;;;;4969604;28;20606;-72
2022/05/24 11:59:40;;;;;;;2.78;2.72;;;38.40;48.20;;;;;;4972349;28;20600;-72
2022/05/24 12:02:20;;;;;;;3.53;3.20;;;38.20;48.40;;;;;;4987496;28;20729;-73
2022/05/24 12:08:00;;;;;;;3.70;3.60;;;37.80;49.30;;;;;;5017049;28;20777;-73
2022/05/24 12:10:41;;;;;;;3.53;3.42;;;37.10;48.10;;;;;;5018656;28;20187;-72
2022/05/24 12:13:28;;;;;;;4.63;3.50;;;36.90;49.60;;;;;;5017177;28;20279;-73
2022/05/24 12:15:57;;;;;;;4.22;3.50;;;37.00;49.80;;;;;;5012391;28;20879;-72
2022/05/24 12:18:39;;;;;;;3.22;3.03;;;37.20;50.80;;;;;;5014924;28;20196;-73
2022/05/24 12:21:05;;;;;;;5.70;4.03;;;37.70;50.40;;;;;;5009689;28;20207;-72
2022/05/24 12:23:32;;;;;;;3.60;3.40;;;;;;;;;;4999968;28;20300;-72
2022/05/24 12:26:13;;;;;;;3.60;3.22;;;38.60;49.30;;;;;;5017379;28;20179;-71
2022/05/24 12:28:39;;;;;;;3.50;3.25;;;;;;;;;;5012950;28;21465;-72
2022/05/24 12:31:07;;;;;;;4.22;3.63;;;39.40;47.50;;;;;;5013304;28;20199;-72
2022/05/24 12:33:33;;;;;;;6.78;3.30;;;;;;;;;;5044877;28;20186;-71
2022/05/24 12:36:28;;;;;;;3.92;3.63;;;39.70;46.60;;;;;;5068909;28;20616;-72
2022/05/24 12:39:16;;;;;;;3.78;3.40;;;39.90;46.50;;;;;;5037584;28;20203;-72
2022/05/24 12:41:46;;;;;;;4.03;3.03;;;40.30;46.90;;;;;;5038239;28;20198;-70
2022/05/24 12:44:13;;;;;;;3.60;3.42;;;40.60;46.00;;;;;;5037436;28;20203;-71
2022/05/24 12:46:40;;;;;;;2.83;2.83;;;40.90;47.70;;;;;;5036270;28;20201;-70
2022/05/24 12:49:21;;;;;;;3.67;3.38;;;41.00;47.70;;;;;;5035187;28;20214;-70
2022/05/24 12:51:47;;;;;;;3.85;3.47;;;40.60;45.70;;;;;;5039742;28;20190;-71
2022/05/24 12:54:12;;;;;;;3.97;3.78;;;40.30;46.20;;;;;;5039068;28;20237;-71
2022/05/24 12:56:38;;;;;;;5.55;3.80;;;40.00;47.00;;;;;;5036672;28;20623;-72
2022/05/24 12:59:12;;;;;;;4.07;3.63;;;39.60;46.90;;;;;;5035503;28;20187;-71
2022/05/24 13:01:41;;;;;;;4.57;4.28;;;39.40;49.20;;;;;;5037623;28;20623;-72
2022/05/24 13:04:15;;;;;;;3.63;3.53;;;39.00;46.90;;;;;;5022657;28;20218;-71
2022/05/24 13:06:43;;;;;;;6.20;3.95;;;38.60;49.30;;;;;;5035000;28;20273;-71
2022/05/24 13:09:29;;;;;;;4.10;3.90;;;38.20;48.30;;;;;;5038686;28;20183;-72
2022/05/24 13:12:01;;;;;;;4.25;3.97;;;38.10;48.00;;;;;;5036767;28;20207;-71
2022/05/24 13:14:45;;;;;;;6.35;4.03;;;38.00;48.50;;;;;;5037460;28;21119;-73
2022/05/24 13:17:12;;;;;;;3.85;3.75;;;38.20;49.70;;;;;;5063087;28;20249;-70
2022/05/24 13:19:57;;;;;;;4.25;3.80;;;38.40;49.00;;;;;;5065951;28;20713;-70
2022/05/24 13:22:45;;;;;;;3.80;3.50;;;38.10;49.10;;;;;;5066456;28;21299;-71
2022/05/24 13:25:26;;;;;;;4.57;4.10;;;37.30;48.80;;;;;;5064176;28;20186;-70
2022/05/24 13:27:59;;;;;;;4.10;3.78;;;36.70;50.80;;;;;;5073950;28;20582;-70
2022/05/24 13:33:41;;;;;;;4.25;3.95;;;35.60;52.80;;;;;;5070233;28;20236;-70
2022/05/24 13:36:12;;;;;;;4.70;4.22;;;35.20;52.00;;;;;;5073315;28;20221;-71
2022/05/24 13:38:40;;;;;;;4.07;3.72;;;35.00;52.50;;;;;;5061737;28;20186;-69
2022/05/24 13:41:08;;;;;;;3.65;3.55;;;34.90;52.60;;;;;;5064270;28;20189;-67
2022/05/24 13:43:38;;;;;;;4.78;4.43;;;34.50;53.70;;;;;;5068187;28;20179;-68
2022/05/24 13:46:16;;;;;;;4.00;3.80;;;34.30;55.00;;;;;;5068855;28;20274;-69
2022/05/24 13:49:24;;;;;;;4.85;3.92;;;34.30;55.40;;;;;;5066328;28;20205;-67
2022/05/24 13:51:50;;;;;;;4.25;3.90;;;;;;;;;;5045190;28;20187;-67